RYR89SY LEGE-EGSS
Flight info
| Callsign | RYR89SY |
|---|---|
| Flight time | 1h 45m |
| Altitude | 34000 |
| Route | GEANT1H GEANT DCT ROCAN DCT TOU DCT TUPAR UN861 DIKRO UM185 TELTU TELTU1L |
| Aircraft | B738/M-SDE2E3FGHIRWXY/LB1 |
Departure
| Time | 2026-05-04 21:42 |
|---|---|
| Airport | Girona-Costa Brava Airport (LEGE) |
Arrival
| Time | 2026-05-04 23:27 |
|---|---|
| Airport | London Stansted Airport (EGSS) |
| Time | Latitude | Longitude | Altitude | Speed | Heading |
|---|---|---|---|---|---|
| 2026-05-04 21:32 | 41.89887 | 2.76394 | 416 ft | 0 kts | 85° |
| 2026-05-04 21:35 | 41.89888 | 2.76398 | 414 ft | 2 kts | 88° |
| 2026-05-04 21:35 | 41.89862 | 2.76397 | 419 ft | 8 kts | 224° |
| 2026-05-04 21:36 | 41.89868 | 2.76359 | 412 ft | 6 kts | 313° |
| 2026-05-04 21:36 | 41.89906 | 2.76276 | 416 ft | 10 kts | 287° |
| 2026-05-04 21:36 | 41.89962 | 2.76237 | 428 ft | 14 kts | 13° |
| 2026-05-04 21:36 | 41.90089 | 2.76284 | 431 ft | 24 kts | 15° |
| 2026-05-04 21:37 | 41.90247 | 2.76341 | 428 ft | 23 kts | 15° |
| 2026-05-04 21:37 | 41.90400 | 2.76399 | 425 ft | 23 kts | 17° |
| 2026-05-04 21:37 | 41.90548 | 2.76457 | 443 ft | 22 kts | 16° |
| 2026-05-04 21:37 | 41.90693 | 2.76512 | 449 ft | 21 kts | 15° |
| 2026-05-04 21:38 | 41.90833 | 2.76566 | 456 ft | 21 kts | 16° |
| 2026-05-04 21:38 | 41.90968 | 2.76616 | 461 ft | 20 kts | 15° |
| 2026-05-04 21:38 | 41.91106 | 2.76669 | 463 ft | 21 kts | 16° |
| 2026-05-04 21:38 | 41.91241 | 2.76721 | 464 ft | 11 kts | 15° |
| 2026-05-04 21:39 | 41.91321 | 2.76751 | 463 ft | 8 kts | 15° |
| 2026-05-04 21:39 | 41.91380 | 2.76771 | 466 ft | 9 kts | 5° |
| 2026-05-04 21:39 | 41.91431 | 2.76745 | 466 ft | 0 kts | 332° |
| 2026-05-04 21:39 | 41.91432 | 2.76745 | 466 ft | 0 kts | 332° |
| 2026-05-04 21:40 | 41.91435 | 2.76742 | 467 ft | 1 kts | 332° |
| 2026-05-04 21:40 | 41.91442 | 2.76737 | 468 ft | 3 kts | 332° |
| 2026-05-04 21:40 | 41.91484 | 2.76707 | 470 ft | 9 kts | 331° |
| 2026-05-04 21:40 | 41.91532 | 2.76643 | 472 ft | 10 kts | 281° |
| 2026-05-04 21:41 | 41.91488 | 2.76582 | 476 ft | 8 kts | 198° |
| 2026-05-04 21:41 | 41.91462 | 2.76573 | 474 ft | 1 kts | 195° |
| 2026-05-04 21:41 | 41.91441 | 2.76566 | 477 ft | 12 kts | 195° |
| 2026-05-04 21:41 | 41.91060 | 2.76421 | 468 ft | 107 kts | 195° |
| 2026-05-04 21:42 | 41.90071 | 2.76039 | 671 ft | 173 kts | 197° |
| 2026-05-04 21:42 | 41.88893 | 2.75576 | 1856 ft | 177 kts | 199° |
| 2026-05-04 21:42 | 41.87624 | 2.75059 | 2828 ft | 199 kts | 199° |
| 2026-05-04 21:42 | 41.86327 | 2.74618 | 4030 ft | 190 kts | 197° |
| 2026-05-04 21:43 | 41.84969 | 2.74175 | 4629 ft | 213 kts | 196° |
| 2026-05-04 21:43 | 41.83499 | 2.73684 | 5453 ft | 219 kts | 197° |
| 2026-05-04 21:43 | 41.82018 | 2.73183 | 6445 ft | 220 kts | 197° |
| 2026-05-04 21:43 | 41.80597 | 2.72456 | 7324 ft | 220 kts | 214° |
| 2026-05-04 21:44 | 41.79427 | 2.71142 | 7773 ft | 220 kts | 232° |
| 2026-05-04 21:44 | 41.78633 | 2.69400 | 7975 ft | 221 kts | 248° |
| 2026-05-04 21:44 | 41.78251 | 2.67414 | 7989 ft | 221 kts | 263° |
| 2026-05-04 21:44 | 41.78305 | 2.65375 | 7997 ft | 223 kts | 280° |
| 2026-05-04 21:45 | 41.78820 | 2.63386 | 8010 ft | 225 kts | 296° |
| 2026-05-04 21:45 | 41.79749 | 2.61723 | 8117 ft | 225 kts | 314° |
| 2026-05-04 21:45 | 41.81047 | 2.60522 | 8613 ft | 235 kts | 332° |
| 2026-05-04 21:45 | 41.82626 | 2.59851 | 9504 ft | 242 kts | 346° |
| 2026-05-04 21:46 | 41.84322 | 2.59624 | 10337 ft | 247 kts | 353° |
| 2026-05-04 21:46 | 41.86055 | 2.59514 | 11141 ft | 252 kts | 353° |
| 2026-05-04 21:46 | 41.87826 | 2.59421 | 11935 ft | 257 kts | 353° |
| 2026-05-04 21:46 | 41.89628 | 2.59325 | 12730 ft | 261 kts | 353° |
| 2026-05-04 21:47 | 41.91461 | 2.59220 | 13514 ft | 266 kts | 353° |
| 2026-05-04 21:47 | 41.93327 | 2.59106 | 14285 ft | 271 kts | 353° |
| 2026-05-04 21:47 | 41.95229 | 2.58989 | 15035 ft | 275 kts | 353° |
| 2026-05-04 21:47 | 41.97153 | 2.58868 | 15768 ft | 279 kts | 353° |
| 2026-05-04 21:48 | 41.99113 | 2.58743 | 16443 ft | 285 kts | 353° |
| 2026-05-04 21:48 | 42.01107 | 2.58614 | 17173 ft | 290 kts | 353° |
| 2026-05-04 21:48 | 42.03141 | 2.58482 | 17920 ft | 293 kts | 353° |
| 2026-05-04 21:48 | 42.05186 | 2.58349 | 18624 ft | 296 kts | 353° |
| 2026-05-04 21:49 | 42.07259 | 2.58214 | 19276 ft | 300 kts | 353° |
| 2026-05-04 21:49 | 42.09332 | 2.58072 | 19922 ft | 303 kts | 351° |
| 2026-05-04 21:49 | 42.11317 | 2.57268 | 20465 ft | 299 kts | 321° |
| 2026-05-04 21:49 | 42.12998 | 2.55496 | 20664 ft | 316 kts | 314° |
| 2026-05-04 21:50 | 42.14724 | 2.53508 | 20837 ft | 338 kts | 314° |
| 2026-05-04 21:50 | 42.16578 | 2.51398 | 20997 ft | 359 kts | 315° |
| 2026-05-04 21:50 | 42.18558 | 2.49183 | 21151 ft | 380 kts | 316° |
| 2026-05-04 21:50 | 42.20634 | 2.46885 | 21553 ft | 390 kts | 317° |
| 2026-05-04 21:51 | 42.22748 | 2.44553 | 22193 ft | 394 kts | 316° |
| 2026-05-04 21:51 | 42.24873 | 2.42202 | 22911 ft | 397 kts | 316° |
| 2026-05-04 21:51 | 42.27016 | 2.39826 | 23555 ft | 400 kts | 316° |
| 2026-05-04 21:51 | 42.29181 | 2.37420 | 24066 ft | 404 kts | 316° |
| 2026-05-04 21:52 | 42.31360 | 2.34997 | 24617 ft | 407 kts | 316° |
| 2026-05-04 21:52 | 42.33556 | 2.32553 | 25168 ft | 410 kts | 316° |
| 2026-05-04 21:52 | 42.35019 | 2.30922 | 25529 ft | 412 kts | 316° |
| 2026-05-04 21:52 | 42.37234 | 2.28453 | 26093 ft | 414 kts | 316° |
| 2026-05-04 21:53 | 42.40186 | 2.25160 | 26821 ft | 417 kts | 316° |
| 2026-05-04 21:53 | 42.41708 | 2.23459 | 27114 ft | 421 kts | 316° |
| 2026-05-04 21:53 | 42.43972 | 2.20928 | 27580 ft | 424 kts | 316° |
| 2026-05-04 21:53 | 42.46997 | 2.17542 | 28252 ft | 427 kts | 316° |
| 2026-05-04 21:54 | 42.48547 | 2.15806 | 28589 ft | 428 kts | 316° |
| 2026-05-04 21:54 | 42.50849 | 2.13225 | 29170 ft | 428 kts | 316° |
| 2026-05-04 21:54 | 42.53106 | 2.10694 | 29873 ft | 425 kts | 315° |
| 2026-05-04 21:54 | 42.55384 | 2.08135 | 30469 ft | 423 kts | 315° |
| 2026-05-04 21:55 | 42.57644 | 2.05594 | 30962 ft | 422 kts | 315° |
| 2026-05-04 21:55 | 42.59905 | 2.03047 | 31445 ft | 422 kts | 315° |
| 2026-05-04 21:55 | 42.62164 | 2.00500 | 31892 ft | 422 kts | 315° |
| 2026-05-04 21:55 | 42.64425 | 1.97950 | 32374 ft | 422 kts | 315° |
| 2026-05-04 21:56 | 42.66709 | 1.95436 | 32891 ft | 422 kts | 319° |
| 2026-05-04 21:56 | 42.69223 | 1.93344 | 33403 ft | 427 kts | 329° |
| 2026-05-04 21:56 | 42.71924 | 1.91642 | 33866 ft | 428 kts | 330° |
| 2026-05-04 21:56 | 42.74653 | 1.89985 | 34033 ft | 434 kts | 330° |
| 2026-05-04 21:57 | 42.77426 | 1.88308 | 34008 ft | 436 kts | 330° |
| 2026-05-04 21:57 | 42.82903 | 1.84974 | 33985 ft | 425 kts | 330° |
| 2026-05-04 21:58 | 42.88270 | 1.81646 | 34013 ft | 427 kts | 330° |
| 2026-05-04 21:58 | 42.93687 | 1.78254 | 34019 ft | 430 kts | 330° |
| 2026-05-04 21:59 | 42.99145 | 1.74828 | 34014 ft | 432 kts | 330° |
| 2026-05-04 21:59 | 43.04621 | 1.71386 | 34014 ft | 433 kts | 330° |
| 2026-05-04 22:00 | 43.10099 | 1.67940 | 34008 ft | 432 kts | 330° |
| 2026-05-04 22:00 | 43.15505 | 1.64532 | 34009 ft | 429 kts | 330° |
| 2026-05-04 22:01 | 43.20924 | 1.61108 | 34014 ft | 427 kts | 330° |
| 2026-05-04 22:01 | 43.26314 | 1.57694 | 34008 ft | 427 kts | 330° |
| 2026-05-04 22:02 | 43.31710 | 1.54269 | 34008 ft | 427 kts | 330° |
| 2026-05-04 22:02 | 43.37107 | 1.50837 | 34014 ft | 429 kts | 330° |
| 2026-05-04 22:03 | 43.42526 | 1.47384 | 34028 ft | 429 kts | 330° |
| 2026-05-04 22:03 | 43.47964 | 1.43913 | 34010 ft | 431 kts | 330° |
| 2026-05-04 22:04 | 43.53389 | 1.40444 | 33996 ft | 433 kts | 330° |
| 2026-05-04 22:04 | 43.58850 | 1.36945 | 33998 ft | 433 kts | 330° |
| 2026-05-04 22:05 | 43.64314 | 1.33437 | 34001 ft | 433 kts | 329° |
| 2026-05-04 22:05 | 43.69773 | 1.29907 | 33994 ft | 433 kts | 329° |
| 2026-05-04 22:06 | 43.75180 | 1.26237 | 33995 ft | 432 kts | 328° |
| 2026-05-04 22:06 | 43.80563 | 1.22529 | 33991 ft | 432 kts | 328° |
| 2026-05-04 22:07 | 43.85953 | 1.18822 | 33998 ft | 432 kts | 328° |
| 2026-05-04 22:07 | 43.91344 | 1.15120 | 33989 ft | 433 kts | 328° |
| 2026-05-04 22:08 | 43.96722 | 1.11424 | 33991 ft | 433 kts | 328° |
| 2026-05-04 22:08 | 44.02127 | 1.07703 | 33981 ft | 434 kts | 328° |
| 2026-05-04 22:09 | 44.07550 | 1.03962 | 33990 ft | 435 kts | 328° |
| 2026-05-04 22:09 | 44.12979 | 1.00209 | 33988 ft | 436 kts | 328° |
| 2026-05-04 22:10 | 44.18412 | 0.96446 | 33987 ft | 436 kts | 328° |
| 2026-05-04 22:10 | 44.23853 | 0.92669 | 33989 ft | 437 kts | 328° |
| 2026-05-04 22:11 | 44.29296 | 0.88883 | 33985 ft | 437 kts | 328° |
| 2026-05-04 22:11 | 44.34699 | 0.85118 | 33982 ft | 436 kts | 328° |
| 2026-05-04 22:12 | 44.40133 | 0.81322 | 33984 ft | 436 kts | 328° |
| 2026-05-04 22:12 | 44.45563 | 0.77520 | 33978 ft | 436 kts | 329° |
| 2026-05-04 22:13 | 44.50994 | 0.73710 | 33983 ft | 437 kts | 329° |
| 2026-05-04 22:13 | 44.56436 | 0.69885 | 33979 ft | 437 kts | 329° |
| 2026-05-04 22:14 | 44.61882 | 0.66050 | 33979 ft | 438 kts | 329° |
| 2026-05-04 22:14 | 44.67298 | 0.62226 | 33968 ft | 438 kts | 329° |
| 2026-05-04 22:15 | 44.72753 | 0.58368 | 33966 ft | 439 kts | 329° |
| 2026-05-04 22:15 | 44.78205 | 0.54503 | 33967 ft | 439 kts | 329° |
| 2026-05-04 22:16 | 44.83648 | 0.50637 | 33967 ft | 438 kts | 329° |
| 2026-05-04 22:16 | 44.89097 | 0.46758 | 33970 ft | 438 kts | 329° |
| 2026-05-04 22:17 | 44.94506 | 0.42899 | 33968 ft | 438 kts | 329° |
| 2026-05-04 22:17 | 44.99943 | 0.39012 | 33977 ft | 438 kts | 329° |
| 2026-05-04 22:18 | 45.05387 | 0.35111 | 33978 ft | 438 kts | 329° |
| 2026-05-04 22:18 | 45.10826 | 0.31205 | 33974 ft | 439 kts | 329° |
| 2026-05-04 22:19 | 45.16269 | 0.27289 | 33972 ft | 438 kts | 329° |
| 2026-05-04 22:19 | 45.21707 | 0.23368 | 33972 ft | 438 kts | 329° |
| 2026-05-04 22:20 | 45.27112 | 0.19462 | 33975 ft | 439 kts | 329° |
| 2026-05-04 22:20 | 45.32552 | 0.15522 | 33974 ft | 439 kts | 329° |
| 2026-05-04 22:21 | 45.37994 | 0.11572 | 33975 ft | 439 kts | 329° |
| 2026-05-04 22:21 | 45.43441 | 0.07610 | 33968 ft | 440 kts | 329° |
| 2026-05-04 22:22 | 45.48898 | 0.03632 | 33973 ft | 440 kts | 329° |
| 2026-05-04 22:22 | 45.54343 | -0.00346 | 33979 ft | 440 kts | 329° |
| 2026-05-04 22:23 | 45.59794 | -0.04337 | 33985 ft | 441 kts | 330° |
| 2026-05-04 22:23 | 45.65251 | -0.08341 | 33974 ft | 440 kts | 329° |
| 2026-05-04 22:24 | 45.70701 | -0.12349 | 33964 ft | 440 kts | 329° |
| 2026-05-04 22:24 | 45.76150 | -0.16365 | 33961 ft | 440 kts | 329° |
| 2026-05-04 22:25 | 45.81554 | -0.20357 | 33966 ft | 440 kts | 329° |
| 2026-05-04 22:25 | 45.86991 | -0.24382 | 33960 ft | 440 kts | 329° |
| 2026-05-04 22:26 | 45.92432 | -0.28419 | 33964 ft | 440 kts | 329° |
| 2026-05-04 22:26 | 45.97869 | -0.32462 | 33961 ft | 440 kts | 329° |
| 2026-05-04 22:27 | 46.03311 | -0.36518 | 33968 ft | 440 kts | 329° |
| 2026-05-04 22:27 | 46.08754 | -0.40583 | 33958 ft | 441 kts | 329° |
| 2026-05-04 22:28 | 46.14175 | -0.44641 | 33953 ft | 441 kts | 329° |
| 2026-05-04 22:28 | 46.19622 | -0.48728 | 33951 ft | 442 kts | 329° |
| 2026-05-04 22:29 | 46.25086 | -0.52837 | 33957 ft | 442 kts | 329° |
| 2026-05-04 22:29 | 46.30548 | -0.56954 | 33960 ft | 442 kts | 329° |
| 2026-05-04 22:30 | 46.35976 | -0.61055 | 33952 ft | 443 kts | 329° |
| 2026-05-04 22:30 | 46.41470 | -0.65110 | 33946 ft | 444 kts | 335° |
| 2026-05-04 22:31 | 46.47472 | -0.67272 | 33978 ft | 447 kts | 352° |
| 2026-05-04 22:31 | 46.53667 | -0.68239 | 33955 ft | 448 kts | 353° |
| 2026-05-04 22:32 | 46.59861 | -0.69182 | 33947 ft | 448 kts | 353° |
| 2026-05-04 22:32 | 46.66049 | -0.70185 | 33953 ft | 448 kts | 353° |
| 2026-05-04 22:33 | 46.72242 | -0.71225 | 33952 ft | 447 kts | 353° |
| 2026-05-04 22:33 | 46.78422 | -0.72273 | 33962 ft | 447 kts | 353° |
| 2026-05-04 22:34 | 46.84599 | -0.73322 | 33954 ft | 447 kts | 353° |
| 2026-05-04 22:34 | 46.90737 | -0.74365 | 33946 ft | 447 kts | 353° |
| 2026-05-04 22:35 | 46.96908 | -0.75415 | 33976 ft | 446 kts | 353° |
| 2026-05-04 22:35 | 47.03081 | -0.76469 | 33959 ft | 446 kts | 353° |
| 2026-05-04 22:36 | 47.09236 | -0.77521 | 33950 ft | 444 kts | 353° |
| 2026-05-04 22:36 | 47.15371 | -0.78573 | 33950 ft | 443 kts | 353° |
| 2026-05-04 22:37 | 47.21477 | -0.79622 | 33947 ft | 442 kts | 353° |
| 2026-05-04 22:37 | 47.27554 | -0.80669 | 33953 ft | 442 kts | 353° |
| 2026-05-04 22:38 | 47.33700 | -0.81730 | 33952 ft | 443 kts | 353° |
| 2026-05-04 22:38 | 47.39830 | -0.82791 | 33944 ft | 444 kts | 353° |
| 2026-05-04 22:39 | 47.45949 | -0.83852 | 33952 ft | 446 kts | 353° |
| 2026-05-04 22:39 | 47.52104 | -0.84922 | 33949 ft | 445 kts | 353° |
| 2026-05-04 22:40 | 47.58260 | -0.85862 | 33942 ft | 444 kts | 355° |
| 2026-05-04 22:40 | 47.64415 | -0.86573 | 33944 ft | 443 kts | 356° |
| 2026-05-04 22:41 | 47.70556 | -0.87274 | 33954 ft | 442 kts | 356° |
| 2026-05-04 22:41 | 47.76657 | -0.88001 | 33954 ft | 443 kts | 355° |
| 2026-05-04 22:42 | 47.82802 | -0.88752 | 33938 ft | 444 kts | 355° |
| 2026-05-04 22:42 | 47.87973 | -0.89389 | 33949 ft | 445 kts | 355° |
| 2026-05-04 22:43 | 47.94117 | -0.90147 | 33948 ft | 447 kts | 355° |
| 2026-05-04 22:43 | 48.00320 | -0.90914 | 33944 ft | 448 kts | 355° |
| 2026-05-04 22:44 | 48.06553 | -0.91685 | 33939 ft | 449 kts | 355° |
| 2026-05-04 22:44 | 48.12798 | -0.92460 | 33949 ft | 450 kts | 355° |
| 2026-05-04 22:45 | 48.19045 | -0.93238 | 33955 ft | 451 kts | 355° |
| 2026-05-04 22:45 | 48.28424 | -0.94408 | 33965 ft | 450 kts | 355° |
| 2026-05-04 22:46 | 48.34668 | -0.95189 | 33970 ft | 450 kts | 355° |
| 2026-05-04 22:46 | 48.40868 | -0.95967 | 33973 ft | 450 kts | 355° |
| 2026-05-04 22:47 | 48.47103 | -0.96752 | 33975 ft | 449 kts | 355° |
| 2026-05-04 22:47 | 48.53330 | -0.97537 | 33978 ft | 449 kts | 355° |
| 2026-05-04 22:48 | 48.59554 | -0.98324 | 33978 ft | 448 kts | 355° |
| 2026-05-04 22:48 | 48.65770 | -0.99112 | 33985 ft | 448 kts | 355° |
| 2026-05-04 22:49 | 48.71986 | -0.99901 | 33979 ft | 447 kts | 355° |
| 2026-05-04 22:49 | 48.78181 | -1.00690 | 33985 ft | 447 kts | 355° |
| 2026-05-04 22:50 | 48.84377 | -1.01481 | 33986 ft | 447 kts | 355° |
| 2026-05-04 22:50 | 48.90567 | -1.02274 | 33988 ft | 446 kts | 355° |
| 2026-05-04 22:51 | 48.96764 | -1.03069 | 33995 ft | 447 kts | 355° |
| 2026-05-04 22:51 | 49.02954 | -1.03865 | 33992 ft | 447 kts | 355° |
| 2026-05-04 22:52 | 49.09152 | -1.04664 | 33996 ft | 446 kts | 354° |
| 2026-05-04 22:52 | 49.15292 | -1.05458 | 33992 ft | 445 kts | 354° |
| 2026-05-04 22:53 | 49.21467 | -1.06258 | 33995 ft | 444 kts | 354° |
| 2026-05-04 22:53 | 49.27620 | -1.07057 | 33996 ft | 443 kts | 354° |
| 2026-05-04 22:54 | 49.33770 | -1.07858 | 34001 ft | 442 kts | 354° |
| 2026-05-04 22:54 | 49.39897 | -1.08658 | 33990 ft | 441 kts | 354° |
| 2026-05-04 22:55 | 49.46007 | -1.09458 | 33996 ft | 440 kts | 354° |
| 2026-05-04 22:55 | 49.52101 | -1.10258 | 33990 ft | 440 kts | 354° |
| 2026-05-04 22:56 | 49.58145 | -1.09951 | 34000 ft | 437 kts | 17° |
| 2026-05-04 22:56 | 49.60948 | -1.08213 | 34001 ft | 434 kts | 32° |
| 2026-05-04 22:56 | 49.63419 | -1.05564 | 33879 ft | 433 kts | 41° |
| 2026-05-04 22:57 | 49.65782 | -1.02639 | 33429 ft | 435 kts | 41° |
| 2026-05-04 22:57 | 49.68138 | -0.99725 | 33021 ft | 432 kts | 41° |
| 2026-05-04 22:57 | 49.70502 | -0.96874 | 32617 ft | 431 kts | 40° |
| 2026-05-04 22:57 | 49.72900 | -0.94072 | 32218 ft | 432 kts | 36° |
| 2026-05-04 22:58 | 49.75545 | -0.91837 | 31817 ft | 435 kts | 24° |
| 2026-05-04 22:58 | 49.78419 | -0.90359 | 31435 ft | 439 kts | 14° |
| 2026-05-04 22:58 | 49.81503 | -0.89639 | 31083 ft | 458 kts | 5° |
| 2026-05-04 22:58 | 49.84746 | -0.89219 | 30733 ft | 476 kts | 4° |
| 2026-05-04 22:59 | 49.88086 | -0.88833 | 30344 ft | 484 kts | 4° |
| 2026-05-04 22:59 | 49.91444 | -0.88420 | 29910 ft | 486 kts | 4° |
| 2026-05-04 22:59 | 49.94809 | -0.87962 | 29446 ft | 484 kts | 5° |
| 2026-05-04 22:59 | 49.98161 | -0.87478 | 28988 ft | 483 kts | 5° |
| 2026-05-04 23:00 | 50.01484 | -0.86991 | 28535 ft | 476 kts | 5° |
| 2026-05-04 23:00 | 50.04744 | -0.86525 | 28084 ft | 466 kts | 5° |
| 2026-05-04 23:00 | 50.07940 | -0.86073 | 27666 ft | 456 kts | 5° |
| 2026-05-04 23:00 | 50.11066 | -0.85633 | 27261 ft | 447 kts | 5° |
| 2026-05-04 23:01 | 50.14135 | -0.85200 | 26862 ft | 438 kts | 5° |
| 2026-05-04 23:01 | 50.17146 | -0.84774 | 26475 ft | 431 kts | 5° |
| 2026-05-04 23:01 | 50.20072 | -0.84359 | 26090 ft | 423 kts | 5° |
| 2026-05-04 23:01 | 50.22978 | -0.83946 | 25711 ft | 415 kts | 5° |
| 2026-05-04 23:02 | 50.25830 | -0.83539 | 25396 ft | 410 kts | 5° |
| 2026-05-04 23:02 | 50.28682 | -0.83132 | 25084 ft | 412 kts | 5° |
| 2026-05-04 23:02 | 50.31552 | -0.82722 | 24774 ft | 415 kts | 5° |
| 2026-05-04 23:02 | 50.34426 | -0.82309 | 24463 ft | 413 kts | 5° |
| 2026-05-04 23:03 | 50.37275 | -0.81894 | 24151 ft | 410 kts | 5° |
| 2026-05-04 23:03 | 50.40103 | -0.81479 | 23843 ft | 407 kts | 5° |
| 2026-05-04 23:03 | 50.42914 | -0.81067 | 23530 ft | 405 kts | 6° |
| 2026-05-04 23:03 | 50.45721 | -0.80654 | 23170 ft | 403 kts | 6° |
| 2026-05-04 23:04 | 50.48508 | -0.80245 | 22810 ft | 401 kts | 6° |
| 2026-05-04 23:04 | 50.51287 | -0.79836 | 22465 ft | 399 kts | 6° |
| 2026-05-04 23:04 | 50.54047 | -0.79430 | 22118 ft | 397 kts | 6° |
| 2026-05-04 23:04 | 50.56790 | -0.79026 | 21774 ft | 395 kts | 6° |
| 2026-05-04 23:05 | 50.59523 | -0.78623 | 21429 ft | 393 kts | 6° |
| 2026-05-04 23:05 | 50.62243 | -0.78222 | 21102 ft | 391 kts | 6° |
| 2026-05-04 23:05 | 50.64942 | -0.77831 | 20767 ft | 389 kts | 6° |
| 2026-05-04 23:05 | 50.67599 | -0.77450 | 20442 ft | 387 kts | 6° |
| 2026-05-04 23:06 | 50.70274 | -0.77066 | 20120 ft | 384 kts | 6° |
| 2026-05-04 23:06 | 50.72922 | -0.76685 | 19797 ft | 382 kts | 6° |
| 2026-05-04 23:06 | 50.75595 | -0.76299 | 19476 ft | 379 kts | 6° |
| 2026-05-04 23:06 | 50.78181 | -0.75924 | 19164 ft | 376 kts | 6° |
| 2026-05-04 23:07 | 50.80764 | -0.75523 | 19058 ft | 372 kts | 9° |
| 2026-05-04 23:07 | 50.83226 | -0.74369 | 19045 ft | 368 kts | 23° |
| 2026-05-04 23:07 | 50.85601 | -0.72825 | 19028 ft | 369 kts | 24° |
| 2026-05-04 23:07 | 50.87966 | -0.71244 | 19023 ft | 369 kts | 24° |
| 2026-05-04 23:08 | 50.90342 | -0.69655 | 19019 ft | 372 kts | 24° |
| 2026-05-04 23:08 | 50.92735 | -0.68069 | 19023 ft | 373 kts | 24° |
| 2026-05-04 23:08 | 50.95135 | -0.66492 | 19027 ft | 373 kts | 24° |
| 2026-05-04 23:08 | 50.97537 | -0.64924 | 19030 ft | 374 kts | 23° |
| 2026-05-04 23:09 | 50.99946 | -0.63357 | 19031 ft | 374 kts | 24° |
| 2026-05-04 23:09 | 51.02352 | -0.61795 | 19025 ft | 373 kts | 23° |
| 2026-05-04 23:09 | 51.04757 | -0.60234 | 19023 ft | 373 kts | 23° |
| 2026-05-04 23:09 | 51.07169 | -0.58668 | 19025 ft | 372 kts | 23° |
| 2026-05-04 23:10 | 51.09564 | -0.57111 | 19027 ft | 371 kts | 23° |
| 2026-05-04 23:10 | 51.11955 | -0.55554 | 19028 ft | 371 kts | 23° |
| 2026-05-04 23:10 | 51.14345 | -0.53997 | 19027 ft | 371 kts | 23° |
| 2026-05-04 23:10 | 51.16725 | -0.52444 | 19027 ft | 370 kts | 23° |
| 2026-05-04 23:11 | 51.19112 | -0.50885 | 19022 ft | 370 kts | 23° |
| 2026-05-04 23:11 | 51.21496 | -0.49326 | 19025 ft | 370 kts | 24° |
| 2026-05-04 23:11 | 51.23879 | -0.47766 | 19028 ft | 370 kts | 23° |
| 2026-05-04 23:11 | 51.26257 | -0.46208 | 19024 ft | 370 kts | 24° |
| 2026-05-04 23:12 | 51.28646 | -0.44641 | 19031 ft | 370 kts | 24° |
| 2026-05-04 23:12 | 51.31000 | -0.43094 | 19030 ft | 370 kts | 23° |
| 2026-05-04 23:12 | 51.33416 | -0.41505 | 19048 ft | 371 kts | 23° |
| 2026-05-04 23:12 | 51.35774 | -0.39952 | 19042 ft | 371 kts | 23° |
| 2026-05-04 23:13 | 51.38167 | -0.38376 | 19045 ft | 371 kts | 23° |
| 2026-05-04 23:13 | 51.40552 | -0.36802 | 19050 ft | 372 kts | 22° |
| 2026-05-04 23:13 | 51.42951 | -0.35218 | 18876 ft | 374 kts | 24° |
| 2026-05-04 23:13 | 51.45328 | -0.33555 | 18630 ft | 371 kts | 26° |
| 2026-05-04 23:14 | 51.47648 | -0.31795 | 18337 ft | 366 kts | 26° |
| 2026-05-04 23:14 | 51.49925 | -0.30026 | 17993 ft | 362 kts | 27° |
| 2026-05-04 23:14 | 51.52185 | -0.28264 | 17689 ft | 361 kts | 27° |
| 2026-05-04 23:14 | 51.54439 | -0.26515 | 17356 ft | 359 kts | 27° |
| 2026-05-04 23:15 | 51.56693 | -0.24773 | 16977 ft | 359 kts | 26° |
| 2026-05-04 23:15 | 51.58954 | -0.23031 | 16615 ft | 360 kts | 26° |
| 2026-05-04 23:15 | 51.61210 | -0.21295 | 16233 ft | 359 kts | 26° |
| 2026-05-04 23:15 | 51.63454 | -0.19568 | 15854 ft | 356 kts | 26° |
| 2026-05-04 23:16 | 51.65673 | -0.17859 | 15478 ft | 350 kts | 26° |
| 2026-05-04 23:16 | 51.67850 | -0.16181 | 15094 ft | 342 kts | 26° |
| 2026-05-04 23:16 | 51.69967 | -0.14548 | 14721 ft | 333 kts | 26° |
| 2026-05-04 23:16 | 51.72018 | -0.12964 | 14329 ft | 326 kts | 26° |
| 2026-05-04 23:17 | 51.74043 | -0.11399 | 13955 ft | 319 kts | 26° |
| 2026-05-04 23:17 | 51.75928 | -0.09580 | 13517 ft | 313 kts | 41° |
| 2026-05-04 23:17 | 51.77609 | -0.07530 | 13099 ft | 308 kts | 27° |
| 2026-05-04 23:17 | 51.79650 | -0.06603 | 12695 ft | 304 kts | 7° |
| 2026-05-04 23:18 | 51.81743 | -0.06367 | 12293 ft | 299 kts | 1° |
| 2026-05-04 23:18 | 51.83815 | -0.06236 | 11865 ft | 296 kts | 1° |
| 2026-05-04 23:18 | 51.85876 | -0.06115 | 11363 ft | 297 kts | 1° |
| 2026-05-04 23:18 | 51.87941 | -0.05996 | 10872 ft | 297 kts | 1° |
| 2026-05-04 23:19 | 51.89980 | -0.05881 | 10395 ft | 297 kts | 1° |
| 2026-05-04 23:19 | 51.92038 | -0.05763 | 9907 ft | 294 kts | 1° |
| 2026-05-04 23:19 | 51.94070 | -0.05642 | 9372 ft | 290 kts | 1° |
| 2026-05-04 23:19 | 51.96059 | -0.05238 | 8824 ft | 288 kts | 18° |
| 2026-05-04 23:20 | 51.97761 | -0.03574 | 8312 ft | 287 kts | 44° |
| 2026-05-04 23:20 | 51.98821 | -0.00877 | 7819 ft | 285 kts | 71° |
| 2026-05-04 23:20 | 51.99031 | 0.02291 | 7310 ft | 284 kts | 98° |
| 2026-05-04 23:20 | 51.98348 | 0.05250 | 6825 ft | 281 kts | 125° |
| 2026-05-04 23:21 | 51.96933 | 0.07363 | 6333 ft | 277 kts | 153° |
| 2026-05-04 23:21 | 51.95109 | 0.08177 | 5812 ft | 271 kts | 181° |
| 2026-05-04 23:21 | 51.93292 | 0.07588 | 5335 ft | 264 kts | 202° |
| 2026-05-04 23:21 | 51.91628 | 0.06465 | 4856 ft | 254 kts | 205° |
| 2026-05-04 23:22 | 51.90044 | 0.05329 | 4367 ft | 250 kts | 205° |
| 2026-05-04 23:22 | 51.88494 | 0.04201 | 4098 ft | 237 kts | 205° |
| 2026-05-04 23:22 | 51.87014 | 0.03120 | 4009 ft | 227 kts | 206° |
| 2026-05-04 23:22 | 51.85633 | 0.02114 | 3985 ft | 209 kts | 206° |
| 2026-05-04 23:23 | 51.84325 | 0.01252 | 3976 ft | 199 kts | 194° |
| 2026-05-04 23:23 | 51.83053 | 0.01630 | 3985 ft | 184 kts | 142° |
| 2026-05-04 23:23 | 51.82404 | 0.03300 | 4016 ft | 177 kts | 111° |
| 2026-05-04 23:23 | 51.81807 | 0.05051 | 3995 ft | 178 kts | 123° |
| 2026-05-04 23:24 | 51.81117 | 0.06722 | 3710 ft | 181 kts | 124° |
| 2026-05-04 23:24 | 51.80423 | 0.08432 | 3387 ft | 183 kts | 115° |
| 2026-05-04 23:24 | 51.80241 | 0.10414 | 3028 ft | 180 kts | 74° |
| 2026-05-04 23:24 | 51.80892 | 0.12081 | 2740 ft | 176 kts | 41° |
| 2026-05-04 23:25 | 51.81760 | 0.13382 | 2590 ft | 165 kts | 41° |
| 2026-05-04 23:25 | 51.82594 | 0.14630 | 2284 ft | 162 kts | 41° |
| 2026-05-04 23:25 | 51.83406 | 0.15846 | 1923 ft | 157 kts | 42° |
| 2026-05-04 23:25 | 51.84206 | 0.17041 | 1392 ft | 157 kts | 42° |
| 2026-05-04 23:26 | 51.84998 | 0.18209 | 1056 ft | 153 kts | 43° |
| 2026-05-04 23:26 | 51.85750 | 0.19394 | 886 ft | 146 kts | 43° |
| 2026-05-04 23:26 | 51.86480 | 0.20466 | 669 ft | 140 kts | 43° |
| 2026-05-04 23:26 | 51.86956 | 0.21159 | 568 ft | 139 kts | 43° |
| 2026-05-04 23:27 | 51.87666 | 0.22224 | 392 ft | 139 kts | 42° |
| 2026-05-04 23:27 | 51.88335 | 0.23232 | 337 ft | 116 kts | 43° |
| 2026-05-04 23:27 | 51.88801 | 0.23928 | 350 ft | 57 kts | 43° |
| 2026-05-04 23:27 | 51.89011 | 0.24256 | 350 ft | 26 kts | 50° |
| 2026-05-04 23:28 | 51.89065 | 0.24399 | 350 ft | 13 kts | 64° |
| 2026-05-04 23:28 | 51.89102 | 0.24544 | 345 ft | 14 kts | 68° |
| 2026-05-04 23:28 | 51.89139 | 0.24689 | 347 ft | 14 kts | 67° |
| 2026-05-04 23:28 | 51.89162 | 0.24779 | 346 ft | 8 kts | 67° |
| 2026-05-04 23:29 | 51.89163 | 0.24865 | 345 ft | 8 kts | 114° |